Big Bear Station Historical Data
Daily Summary for January 15, 2019 Units:  Both    English   Metric
Next Day »
Daily Weekly Monthly Yearly Custom
  High: Low: Average:
Temperature: 35.4 °F /  1.9 °C 28.4 °F /  -2 °C 31.5 °F /  -0.3 °C
Dew Point: 32.6 °F /  0.3 °C 26.0 °F /  -3.3 °C 29.8 °F /  -1.2 °C
Humidity: 98% 86% 94%
Wind Speed: 6.8mph /  10.9km/h - 0.8mph /  1.3km/h
Wind Gust: -999.0mph /  -1607.7km/h - -
Wind- - SW
Pressure: 23.49 in /  795.4 hPa 23.35 in /  790.6 hPa -
Precipitation: 0.22 in /  5.59 mm    
Historical Graphs
 
 
Tabular Data for January 15, 2019
Time Temperature Dew Point Pressure Wind Wind Speed Wind Gust Humidity Rainfall Rate (Hourly)
00:07 33.3 °F /  0.7 °C 32.5 °F /  0.3 °C 23.37in /  791.3hPa South 2.2mph /  3.5km/h -999.0mph /  -1607.7km/h 97% 0.00in /  0mm
00:22 33.1 °F /  0.6 °C 32.6 °F /  0.3 °C 23.36in /  791hPa West 1.1mph /  1.8km/h -999.0mph /  -1607.7km/h 98% 0.00in /  0mm
00:37 32.7 °F /  0.4 °C 32.2 °F /  0.1 °C 23.37in /  791.3hPa NNW 3.2mph /  5.1km/h -999.0mph /  -1607.7km/h 98% 0.00in /  0mm
00:53 32.7 °F /  0.4 °C 32.2 °F /  0.1 °C 23.36in /  791hPa NNW 1.1mph /  1.8km/h -999.0mph /  -1607.7km/h 98% 0.00in /  0mm
01:09 32.4 °F /  0.2 °C 31.6 °F /  -0.2 °C 23.37in /  791.3hPa South 6.8mph /  10.9km/h -999.0mph /  -1607.7km/h 97% 0.00in /  0mm
01:24 32.0 °F /  0 °C 31.0 °F /  -0.6 °C 23.37in /  791.3hPa SSE 2.7mph /  4.3km/h -999.0mph /  -1607.7km/h 96% 0.00in /  0mm
01:41 32.2 °F /  0.1 °C 31.2 °F /  -0.4 °C 23.38in /  791.6hPa SE 4.2mph /  6.8km/h -999.0mph /  -1607.7km/h 96% 0.00in /  0mm
01:56 32.2 °F /  0.1 °C 30.9 °F /  -0.6 °C 23.38in /  791.6hPa Calm   -999.0mph /  -1607.7km/h 95% 0.00in /  0mm
02:13 32.2 °F /  0.1 °C 30.7 °F /  -0.7 °C 23.38in /  791.6hPa SSE 2.2mph /  3.5km/h -999.0mph /  -1607.7km/h 94% 0.00in /  0mm
02:28 32.0 °F /  0 °C 30.5 °F /  -0.8 °C 23.38in /  791.6hPa Calm   -999.0mph /  -1607.7km/h 94% 0.00in /  0mm
02:43 31.5 °F /  -0.3 °C 30.0 °F /  -1.1 °C 23.38in /  791.6hPa SSW 2.7mph /  4.3km/h -999.0mph /  -1607.7km/h 94% 0.00in /  0mm
03:00 31.3 °F /  -0.4 °C 29.8 °F /  -1.2 °C 23.37in /  791.3hPa Calm   -999.0mph /  -1607.7km/h 94% 0.00in /  0mm
03:16 30.9 °F /  -0.6 °C 29.1 °F /  -1.6 °C 23.37in /  791.3hPa Calm   -999.0mph /  -1607.7km/h 93% 0.00in /  0mm
03:31 30.4 °F /  -0.9 °C 28.9 °F /  -1.7 °C 23.37in /  791.3hPa Calm   -999.0mph /  -1607.7km/h 94% 0.00in /  0mm
03:46 29.8 °F /  -1.2 °C 28.5 °F /  -1.9 °C 23.37in /  791.3hPa Calm   -999.0mph /  -1607.7km/h 95% 0.00in /  0mm
04:01 29.7 °F /  -1.3 °C 28.4 °F /  -2 °C 23.36in /  791hPa Calm   -999.0mph /  -1607.7km/h 95% 0.00in /  0mm
04:16 29.5 °F /  -1.4 °C 28.2 °F /  -2.1 °C 23.36in /  791hPa Calm   -999.0mph /  -1607.7km/h 95% 0.00in /  0mm
04:32 29.1 °F /  -1.6 °C 27.8 °F /  -2.3 °C 23.36in /  791hPa Calm   -999.0mph /  -1607.7km/h 95% 0.00in /  0mm
04:47 28.9 °F /  -1.7 °C 27.6 °F /  -2.4 °C 23.36in /  791hPa Calm   -999.0mph /  -1607.7km/h 95% 0.00in /  0mm
05:02 28.8 °F /  -1.8 °C 27.5 °F /  -2.5 °C 23.35in /  790.6hPa Calm   -999.0mph /  -1607.7km/h 95% 0.00in /  0mm
05:17 28.8 °F /  -1.8 °C 27.5 °F /  -2.5 °C 23.35in /  790.6hPa Calm   -999.0mph /  -1607.7km/h 95% 0.00in /  0mm
05:32 28.6 °F /  -1.9 °C 26.3 °F /  -3.2 °C 23.36in /  791hPa Calm   -999.0mph /  -1607.7km/h 91% 0.00in /  0mm
05:48 28.8 °F /  -1.8 °C 26.5 °F /  -3.1 °C 23.37in /  791.3hPa Calm   -999.0mph /  -1607.7km/h 91% 0.00in /  0mm
06:03 28.4 °F /  -2 °C 26.4 °F /  -3.1 °C 23.37in /  791.3hPa Calm   -999.0mph /  -1607.7km/h 92% 0.00in /  0mm
06:18 28.9 °F /  -1.7 °C 26.9 °F /  -2.8 °C 23.38in /  791.6hPa Calm   -999.0mph /  -1607.7km/h 92% 0.00in /  0mm
06:33 29.1 °F /  -1.6 °C 26.3 °F /  -3.2 °C 23.38in /  791.6hPa South 2.7mph /  4.3km/h -999.0mph /  -1607.7km/h 89% 0.00in /  0mm
06:49 28.9 °F /  -1.7 °C 26.1 °F /  -3.3 °C 23.38in /  791.6hPa Calm   -999.0mph /  -1607.7km/h 89% 0.00in /  0mm
07:04 28.6 °F /  -1.9 °C 26.0 °F /  -3.3 °C 23.38in /  791.6hPa Calm   -999.0mph /  -1607.7km/h 90% 0.00in /  0mm
07:19 28.4 °F /  -2 °C 26.1 °F /  -3.3 °C 23.38in /  791.6hPa Calm   -999.0mph /  -1607.7km/h 91% 0.00in /  0mm
07:34 28.6 °F /  -1.9 °C 26.3 °F /  -3.2 °C 23.38in /  791.6hPa Calm   -999.0mph /  -1607.7km/h 91% 0.00in /  0mm
07:49 28.6 °F /  -1.9 °C 26.6 °F /  -3 °C 23.38in /  791.6hPa Calm   -999.0mph /  -1607.7km/h 92% 0.00in /  0mm
08:05 29.1 °F /  -1.6 °C 27.3 °F /  -2.6 °C 23.38in /  791.6hPa Calm   -999.0mph /  -1607.7km/h 93% 0.00in /  0mm
08:20 29.3 °F /  -1.5 °C 27.3 °F /  -2.6 °C 23.38in /  791.6hPa Calm   -999.0mph /  -1607.7km/h 92% 0.00in /  0mm
08:35 29.7 °F /  -1.3 °C 27.7 °F /  -2.4 °C 23.38in /  791.6hPa Calm   -999.0mph /  -1607.7km/h 92% 0.00in /  0mm
08:50 30.0 °F /  -1.1 °C 28.0 °F /  -2.2 °C 23.38in /  791.6hPa Calm   -999.0mph /  -1607.7km/h 92% 0.00in /  0mm
09:05 30.4 °F /  -0.9 °C 28.6 °F /  -1.9 °C 23.39in /  792hPa NNE 3.7mph /  6km/h -999.0mph /  -1607.7km/h 93% 0.00in /  0mm
09:21 30.4 °F /  -0.9 °C 28.6 °F /  -1.9 °C 23.39in /  792hPa Calm   -999.0mph /  -1607.7km/h 93% 0.00in /  0mm
09:36 30.9 °F /  -0.6 °C 29.1 °F /  -1.6 °C 23.39in /  792hPa Calm   -999.0mph /  -1607.7km/h 93% 0.00in /  0mm
09:53 31.6 °F /  -0.2 °C 29.8 °F /  -1.2 °C 23.40in /  792.3hPa NNW 2.7mph /  4.3km/h -999.0mph /  -1607.7km/h 93% 0.00in /  0mm
10:08 32.0 °F /  0 °C 30.2 °F /  -1 °C 23.40in /  792.3hPa NW 4.2mph /  6.8km/h -999.0mph /  -1607.7km/h 93% 0.00in /  0mm
10:23 32.7 °F /  0.4 °C 30.6 °F /  -0.8 °C 23.40in /  792.3hPa NNW 3.2mph /  5.1km/h -999.0mph /  -1607.7km/h 92% 0.00in /  0mm
10:38 33.3 °F /  0.7 °C 31.0 °F /  -0.6 °C 23.40in /  792.3hPa WNW 3.7mph /  6km/h -999.0mph /  -1607.7km/h 91% 0.00in /  0mm
10:53 33.1 °F /  0.6 °C 30.5 °F /  -0.8 °C 23.39in /  792hPa SSE 3.2mph /  5.1km/h -999.0mph /  -1607.7km/h 90% 0.00in /  0mm
11:09 33.8 °F /  1 °C 30.9 °F /  -0.6 °C 23.39in /  792hPa Calm   -999.0mph /  -1607.7km/h 89% 0.00in /  0mm
11:30 33.4 °F /  0.8 °C 30.5 °F /  -0.8 °C 23.39in /  792hPa SSW 2.2mph /  3.5km/h -999.0mph /  -1607.7km/h 89% 0.00in /  0mm
11:45 35.1 °F /  1.7 °C 31.9 °F /  -0.1 °C 23.38in /  791.6hPa NNW 3.7mph /  6km/h -999.0mph /  -1607.7km/h 88% 0.00in /  0mm
12:02 33.3 °F /  0.7 °C 30.1 °F /  -1.1 °C 23.38in /  791.6hPa NE 3.2mph /  5.1km/h -999.0mph /  -1607.7km/h 88% 0.00in /  0mm
12:17 35.4 °F /  1.9 °C 31.6 °F /  -0.2 °C 23.36in /  791hPa Calm   -999.0mph /  -1607.7km/h 86% 0.00in /  0mm
12:33 35.4 °F /  1.9 °C 31.6 °F /  -0.2 °C 23.36in /  791hPa Calm   -999.0mph /  -1607.7km/h 86% 0.00in /  0mm
12:48 35.4 °F /  1.9 °C 31.9 °F /  -0.1 °C 23.36in /  791hPa NNE 1.1mph /  1.8km/h -999.0mph /  -1607.7km/h 87% 0.00in /  0mm
13:03 33.8 °F /  1 °C 30.6 °F /  -0.8 °C 23.35in /  790.6hPa WNW 5.8mph /  9.3km/h -999.0mph /  -1607.7km/h 88% 0.00in /  0mm
13:19 33.6 °F /  0.9 °C 31.0 °F /  -0.6 °C 23.35in /  790.6hPa Calm   -999.0mph /  -1607.7km/h 90% 0.00in /  0mm
13:35 32.5 °F /  0.3 °C 30.2 °F /  -1 °C 23.35in /  790.6hPa NW 3.7mph /  6km/h -999.0mph /  -1607.7km/h 91% 0.00in /  0mm
13:50 32.5 °F /  0.3 °C 30.2 °F /  -1 °C 23.35in /  790.6hPa Calm   -999.0mph /  -1607.7km/h 91% 0.00in /  0mm
14:07 33.3 °F /  0.7 °C 30.7 °F /  -0.7 °C 23.35in /  790.6hPa SSW 2.2mph /  3.5km/h -999.0mph /  -1607.7km/h 90% 0.00in /  0mm
14:24 32.7 °F /  0.4 °C 30.4 °F /  -0.9 °C 23.35in /  790.6hPa Calm   -999.0mph /  -1607.7km/h 91% 0.00in /  0mm
14:39 32.4 °F /  0.2 °C 30.3 °F /  -0.9 °C 23.35in /  790.6hPa NW 2.2mph /  3.5km/h -999.0mph /  -1607.7km/h 92% 0.00in /  0mm
14:57 32.0 °F /  0 °C 30.2 °F /  -1 °C 23.36in /  791hPa Calm   -999.0mph /  -1607.7km/h 93% 0.00in /  0mm
15:12 32.2 °F /  0.1 °C 30.4 °F /  -0.9 °C 23.36in /  791hPa Calm   -999.0mph /  -1607.7km/h 93% 0.00in /  0mm
15:28 31.8 °F /  -0.1 °C 30.0 °F /  -1.1 °C 23.36in /  791hPa Calm   -999.0mph /  -1607.7km/h 93% 0.00in /  0mm
15:45 31.3 °F /  -0.4 °C 29.5 °F /  -1.4 °C 23.36in /  791hPa Calm   -999.0mph /  -1607.7km/h 93% 0.00in /  0mm
16:01 30.7 °F /  -0.7 °C 28.9 °F /  -1.7 °C 23.36in /  791hPa WNW 1.1mph /  1.8km/h -999.0mph /  -1607.7km/h 93% 0.00in /  0mm
16:16 30.6 °F /  -0.8 °C 29.1 °F /  -1.6 °C 23.37in /  791.3hPa NE 1.1mph /  1.8km/h -999.0mph /  -1607.7km/h 94% 0.00in /  0mm
16:31 30.7 °F /  -0.7 °C 29.4 °F /  -1.4 °C 23.37in /  791.3hPa Calm   -999.0mph /  -1607.7km/h 95% 0.00in /  0mm
16:46 30.6 °F /  -0.8 °C 29.3 °F /  -1.5 °C 23.37in /  791.3hPa Calm   -999.0mph /  -1607.7km/h 95% 0.00in /  0mm
17:02 30.9 °F /  -0.6 °C 29.6 °F /  -1.3 °C 23.37in /  791.3hPa Calm   -999.0mph /  -1607.7km/h 95% 0.00in /  0mm
17:17 30.2 °F /  -1 °C 28.9 °F /  -1.7 °C 23.38in /  791.6hPa Calm   -999.0mph /  -1607.7km/h 95% 0.00in /  0mm
17:32 30.2 °F /  -1 °C 28.9 °F /  -1.7 °C 23.38in /  791.6hPa Calm   -999.0mph /  -1607.7km/h 95% 0.00in /  0mm
17:48 30.2 °F /  -1 °C 28.9 °F /  -1.7 °C 23.37in /  791.3hPa Calm   -999.0mph /  -1607.7km/h 95% 0.00in /  0mm
18:03 30.4 °F /  -0.9 °C 29.1 °F /  -1.6 °C 23.38in /  791.6hPa Calm   -999.0mph /  -1607.7km/h 95% 0.00in /  0mm
18:18 30.6 °F /  -0.8 °C 29.3 °F /  -1.5 °C 23.39in /  792hPa Calm   -999.0mph /  -1607.7km/h 95% 0.00in /  0mm
18:33 30.6 °F /  -0.8 °C 29.3 °F /  -1.5 °C 23.39in /  792hPa Calm   -999.0mph /  -1607.7km/h 95% 0.00in /  0mm
18:49 30.9 °F /  -0.6 °C 29.9 °F /  -1.2 °C 23.40in /  792.3hPa Calm   -999.0mph /  -1607.7km/h 96% 0.00in /  0mm
19:04 31.1 °F /  -0.5 °C 30.1 °F /  -1.1 °C 23.41in /  792.7hPa Calm   -999.0mph /  -1607.7km/h 96% 0.00in /  0mm
19:19 31.6 °F /  -0.2 °C 30.8 °F /  -0.7 °C 23.41in /  792.7hPa Calm   -999.0mph /  -1607.7km/h 97% 0.00in /  0mm
19:35 31.6 °F /  -0.2 °C 30.8 °F /  -0.7 °C 23.41in /  792.7hPa Calm   -999.0mph /  -1607.7km/h 97% 0.00in /  0mm
19:50 31.6 °F /  -0.2 °C 30.8 °F /  -0.7 °C 23.40in /  792.3hPa Calm   -999.0mph /  -1607.7km/h 97% 0.00in /  0mm
20:05 32.0 °F /  0 °C 31.2 °F /  -0.4 °C 23.41in /  792.7hPa Calm   -999.0mph /  -1607.7km/h 97% 0.00in /  0mm
20:20 32.2 °F /  0.1 °C 31.4 °F /  -0.3 °C 23.41in /  792.7hPa Calm   -999.0mph /  -1607.7km/h 97% 0.00in /  0mm
20:35 32.2 °F /  0.1 °C 31.4 °F /  -0.3 °C 23.41in /  792.7hPa Calm   -999.0mph /  -1607.7km/h 97% 0.00in /  0mm
20:51 32.2 °F /  0.1 °C 31.4 °F /  -0.3 °C 23.42in /  793hPa Calm   -999.0mph /  -1607.7km/h 97% 0.00in /  0mm
21:06 32.2 °F /  0.1 °C 31.4 °F /  -0.3 °C 23.43in /  793.3hPa Calm   -999.0mph /  -1607.7km/h 97% 0.00in /  0mm
21:21 32.2 °F /  0.1 °C 31.4 °F /  -0.3 °C 23.43in /  793.3hPa Calm   -999.0mph /  -1607.7km/h 97% 0.00in /  0mm
21:36 32.5 °F /  0.3 °C 31.7 °F /  -0.2 °C 23.44in /  793.7hPa Calm   -999.0mph /  -1607.7km/h 97% 0.00in /  0mm
21:51 32.4 °F /  0.2 °C 31.6 °F /  -0.2 °C 23.45in /  794hPa Calm   -999.0mph /  -1607.7km/h 97% 0.00in /  0mm
22:07 32.5 °F /  0.3 °C 31.7 °F /  -0.2 °C 23.46in /  794.4hPa Calm   -999.0mph /  -1607.7km/h 97% 0.00in /  0mm
22:22 32.9 °F /  0.5 °C 32.1 °F /  0.1 °C 23.46in /  794.4hPa Calm   -999.0mph /  -1607.7km/h 97% 0.00in /  0mm
22:37 32.9 °F /  0.5 °C 32.1 °F /  0.1 °C 23.46in /  794.4hPa Calm   -999.0mph /  -1607.7km/h 97% 0.00in /  0mm
22:52 32.7 °F /  0.4 °C 31.9 °F /  -0.1 °C 23.48in /  795hPa Calm   -999.0mph /  -1607.7km/h 97% 0.00in /  0mm
23:08 33.1 °F /  0.6 °C 32.3 °F /  0.2 °C 23.47in /  794.7hPa Calm   -999.0mph /  -1607.7km/h 97% 0.00in /  0mm
23:23 33.1 °F /  0.6 °C 32.6 °F /  0.3 °C 23.48in /  795hPa Calm   -999.0mph /  -1607.7km/h 98% 0.00in /  0mm
23:38 32.9 °F /  0.5 °C 32.4 °F /  0.2 °C 23.49in /  795.4hPa Calm   -999.0mph /  -1607.7km/h 98% 0.00in /  0mm
23:53 32.9 °F /  0.5 °C 32.4 °F /  0.2 °C 23.49in /  795.4hPa Calm   -999.0mph /  -1607.7km/h 98% 0.00in /  0mm
Big Bear CA Weather